createdAt,value
2019-01-14T00:00:59.384Z,3.23
2019-01-14T00:03:28.403Z,3.67
2019-01-14T00:05:59.493Z,3.43
2019-01-14T00:08:28.532Z,3.90
2019-01-14T00:10:57.572Z,3.17
2019-01-14T00:13:26.629Z,4.00
2019-01-14T00:15:55.667Z,3.30
2019-01-14T00:18:24.711Z,3.30
2019-01-14T00:20:53.793Z,3.50
2019-01-14T00:23:22.828Z,3.27
2019-01-14T00:25:52.827Z,2.70
2019-01-14T00:28:21.884Z,3.10
2019-01-14T00:30:50.946Z,3.27
2019-01-14T00:33:19.983Z,2.67
2019-01-14T00:35:49.124Z,2.60
2019-01-14T00:38:18.161Z,3.03
2019-01-14T00:40:47.207Z,3.00
2019-01-14T00:43:16.315Z,2.60
2019-01-14T00:46:10.302Z,2.73
2019-01-14T00:48:39.445Z,3.10
2019-01-14T00:51:08.479Z,3.90
2019-01-14T00:53:37.512Z,3.00
2019-01-14T00:56:06.568Z,2.70
2019-01-14T00:58:35.613Z,2.90
2019-01-14T01:01:04.634Z,2.60
2019-01-14T01:03:33.846Z,2.23
2019-01-14T01:06:02.890Z,2.33
2019-01-14T01:08:31.921Z,2.00
2019-01-14T01:11:00.988Z,2.00
2019-01-14T01:13:30.025Z,2.63
2019-01-14T01:16:17.568Z,2.30
2019-01-14T01:18:46.605Z,2.00
2019-01-14T01:21:15.631Z,1.90
2019-01-14T01:23:44.702Z,1.70
2019-01-14T01:26:13.731Z,2.10
2019-01-14T01:28:42.767Z,1.83
2019-01-14T01:31:11.835Z,1.40
2019-01-14T01:33:40.881Z,1.60
2019-01-14T01:36:09.928Z,1.60
2019-01-14T01:38:38.997Z,1.80
2019-01-14T01:41:08.019Z,1.30
2019-01-14T01:43:37.048Z,1.20
2019-01-14T01:46:06.137Z,1.77
2019-01-14T01:48:35.170Z,1.70
2019-01-14T01:51:04.204Z,1.70
2019-01-14T01:53:33.267Z,2.43
2019-01-14T01:56:02.293Z,1.90
2019-01-14T01:58:31.323Z,2.10
2019-01-14T02:01:00.397Z,1.20
2019-01-14T02:03:29.429Z,1.60
2019-01-14T02:05:59.468Z,1.70
2019-01-14T02:08:28.595Z,1.60
2019-01-14T02:10:57.637Z,1.60
2019-01-14T02:13:26.658Z,1.50
2019-01-14T02:15:55.722Z,1.37
2019-01-14T02:18:24.756Z,1.60
2019-01-14T02:20:53.776Z,1.73
2019-01-14T02:23:22.893Z,1.50
2019-01-14T02:25:51.917Z,2.17
2019-01-14T02:28:20.943Z,1.50
2019-01-14T02:30:50.018Z,1.40
2019-01-14T02:33:19.046Z,1.50
2019-01-14T02:35:48.074Z,1.80
2019-01-14T02:38:17.132Z,1.50
2019-01-14T02:40:46.156Z,1.40
2019-01-14T02:43:15.201Z,1.60
2019-01-14T02:45:44.254Z,1.63
2019-01-14T02:48:13.279Z,1.50
2019-01-14T02:50:42.323Z,1.37
2019-01-14T02:53:11.524Z,1.30
2019-01-14T02:55:40.559Z,1.30
2019-01-14T02:58:09.585Z,1.73
2019-01-14T03:00:38.669Z,1.30
2019-01-14T03:03:07.695Z,1.60
2019-01-14T03:05:50.378Z,1.33
2019-01-14T03:08:19.400Z,1.40
2019-01-14T03:10:48.433Z,1.40
2019-01-14T03:13:17.506Z,1.27
2019-01-14T03:15:46.548Z,1.23
2019-01-14T03:18:15.589Z,1.30
2019-01-14T03:20:44.650Z,1.20
2019-01-14T03:23:13.688Z,1.30
2019-01-14T03:25:42.719Z,0.90
2019-01-14T03:28:11.779Z,1.30
2019-01-14T03:30:40.810Z,1.30
2019-01-14T03:33:09.842Z,1.40
2019-01-14T03:35:38.944Z,1.37
2019-01-14T03:38:07.970Z,2.00
2019-01-14T03:40:37.010Z,2.30
2019-01-14T03:43:06.074Z,1.63
2019-01-14T03:45:35.119Z,1.73
2019-01-14T03:48:04.168Z,1.90
2019-01-14T03:50:33.229Z,1.80
2019-01-14T03:53:02.277Z,1.73
2019-01-14T03:55:31.305Z,1.80
2019-01-14T03:58:00.393Z,1.70
2019-01-14T04:00:29.424Z,1.60
2019-01-14T04:02:58.455Z,1.90
2019-01-14T04:05:27.527Z,1.83
2019-01-14T04:07:56.558Z,1.80
2019-01-14T04:10:25.584Z,2.00
2019-01-14T04:12:54.645Z,1.50
2019-01-14T04:15:23.679Z,1.63
2019-01-14T04:17:52.723Z,1.40
2019-01-14T04:20:21.800Z,1.60
2019-01-14T04:22:50.836Z,1.77
2019-01-14T04:25:19.879Z,1.70
2019-01-14T04:27:48.937Z,1.53
2019-01-14T04:30:18.919Z,1.93
2019-01-14T04:32:47.996Z,1.83
2019-01-14T04:35:17.005Z,1.80
2019-01-14T04:37:46.043Z,1.63
2019-01-14T04:40:15.135Z,1.70
2019-01-14T04:42:44.264Z,1.90
2019-01-14T04:45:13.312Z,1.73
2019-01-14T04:47:42.352Z,1.70
2019-01-14T04:50:11.424Z,2.00
2019-01-14T04:52:40.465Z,1.70
2019-01-14T04:55:09.511Z,1.87
2019-01-14T04:57:38.581Z,2.20
2019-01-14T05:00:07.619Z,1.57
2019-01-14T05:02:36.656Z,1.60
2019-01-14T05:05:05.837Z,1.57
2019-01-14T05:07:34.858Z,1.80
2019-01-14T05:10:03.899Z,1.53
2019-01-14T05:12:33.046Z,1.70
2019-01-14T05:15:02.077Z,2.03
2019-01-14T05:17:31.114Z,1.80
2019-01-14T05:20:00.251Z,1.40
2019-01-14T05:22:29.213Z,1.70
2019-01-14T05:24:58.240Z,1.83
2019-01-14T05:27:27.323Z,1.43
2019-01-14T05:29:56.362Z,1.50
2019-01-14T05:32:25.379Z,1.30
2019-01-14T05:34:54.437Z,1.73
2019-01-14T05:37:23.463Z,1.67
2019-01-14T05:39:52.511Z,1.47
2019-01-14T05:42:21.563Z,1.53
2019-01-14T05:44:50.619Z,1.67
2019-01-14T05:47:19.646Z,1.23
2019-01-14T05:49:48.778Z,1.63
2019-01-14T05:52:17.815Z,1.23
2019-01-14T05:54:46.897Z,1.60
2019-01-14T05:57:15.911Z,1.40
2019-01-14T05:59:44.941Z,1.60
2019-01-14T06:02:13.973Z,1.57
2019-01-14T06:04:43.219Z,1.43
2019-01-14T06:07:12.255Z,1.50
2019-01-14T06:09:41.290Z,1.30
2019-01-14T06:12:10.534Z,1.50
2019-01-14T06:14:39.572Z,1.73
2019-01-14T06:17:08.600Z,1.60
2019-01-14T06:19:37.657Z,1.50
2019-01-14T06:22:06.688Z,1.43
2019-01-14T06:24:35.735Z,1.50
2019-01-14T06:27:04.787Z,1.50
2019-01-14T06:29:33.821Z,2.10
2019-01-14T06:32:03.021Z,3.77
2019-01-14T06:34:32.135Z,2.80
2019-01-14T06:37:01.165Z,3.77
2019-01-14T06:39:30.200Z,9.57
2019-01-14T06:41:59.272Z,10.57
2019-01-14T06:44:28.312Z,3.07
2019-01-14T06:46:57.348Z,4.13
2019-01-14T06:49:26.413Z,3.07
2019-01-14T06:51:55.455Z,2.37
2019-01-14T06:54:24.523Z,1.80
2019-01-14T06:56:53.625Z,2.67
2019-01-14T06:59:22.662Z,1.70
2019-01-14T07:01:51.795Z,1.50
2019-01-14T07:04:20.856Z,1.80
2019-01-14T07:06:49.883Z,1.60
2019-01-14T07:09:18.927Z,1.50
2019-01-14T07:11:47.985Z,2.10
2019-01-14T07:14:17.023Z,2.30
2019-01-14T07:16:46.072Z,2.30
2019-01-14T07:19:15.183Z,1.30
2019-01-14T07:21:44.230Z,1.50
2019-01-14T07:24:13.259Z,2.00
2019-01-14T07:26:42.329Z,5.33
2019-01-14T07:29:11.367Z,2.23
2019-01-14T07:31:40.404Z,2.43
2019-01-14T07:34:09.470Z,2.40
2019-01-14T07:36:38.500Z,2.00
2019-01-14T07:39:07.550Z,2.20
2019-01-14T07:41:36.808Z,3.97
2019-01-14T07:44:05.870Z,2.80
2019-01-14T07:46:34.901Z,2.33
2019-01-14T07:49:03.968Z,2.40
2019-01-14T07:51:32.997Z,2.43
2019-01-14T07:54:02.052Z,2.20
2019-01-14T07:56:31.111Z,4.70
2019-01-14T07:59:00.138Z,3.80
2019-01-14T08:01:29.165Z,4.23
2019-01-14T08:03:58.265Z,4.50
2019-01-14T08:06:27.299Z,3.40
2019-01-14T08:08:56.331Z,2.93
2019-01-14T08:11:25.384Z,2.77
2019-01-14T08:13:54.423Z,2.70
2019-01-14T08:16:23.436Z,2.40
2019-01-14T08:18:52.504Z,3.70
2019-01-14T08:21:21.548Z,3.50
2019-01-14T08:23:50.567Z,2.87
2019-01-14T08:26:19.675Z,4.00
2019-01-14T08:28:48.703Z,2.33
2019-01-14T08:31:17.739Z,8.57
2019-01-14T08:33:46.817Z,9.67
2019-01-14T08:36:15.867Z,8.30
2019-01-14T08:38:44.896Z,9.63
2019-01-14T08:41:13.959Z,8.83
2019-01-14T08:43:42.984Z,4.40
2019-01-14T08:46:13.025Z,2.60
2019-01-14T08:48:48.597Z,3.40
2019-01-14T08:51:11.130Z,5.63
2019-01-14T08:53:40.158Z,4.20
2019-01-14T08:56:09.228Z,2.10
2019-01-14T08:58:38.262Z,3.40
2019-01-14T09:01:07.304Z,2.03
2019-01-14T09:03:36.363Z,2.80
2019-01-14T09:06:05.404Z,3.23
2019-01-14T09:08:34.445Z,2.80
2019-01-14T09:11:03.545Z,3.70
2019-01-14T09:13:32.580Z,3.40
2019-01-14T09:16:01.609Z,2.60
2019-01-14T09:18:30.669Z,2.67
2019-01-14T09:20:59.712Z,2.73
2019-01-14T09:23:28.750Z,6.27
2019-01-14T09:25:57.823Z,6.63
2019-01-14T09:28:26.883Z,8.90
2019-01-14T09:30:55.917Z,8.13
2019-01-14T09:33:25.007Z,3.37
2019-01-14T09:35:54.061Z,7.03
2019-01-14T09:38:23.087Z,2.53
2019-01-14T09:40:52.145Z,5.83
2019-01-14T09:43:21.184Z,5.23
2019-01-14T09:45:52.257Z,20.10
2019-01-14T09:48:21.364Z,64.90
2019-01-14T09:50:50.418Z,25.17
2019-01-14T09:53:19.477Z,43.27
2019-01-14T09:55:48.668Z,18.17
2019-01-14T09:58:17.720Z,17.77
2019-01-14T10:00:46.767Z,22.27
2019-01-14T10:03:15.854Z,7.70
2019-01-14T10:05:44.892Z,2.87
2019-01-14T10:08:13.934Z,4.80
2019-01-14T10:10:43.006Z,5.27
2019-01-14T10:13:12.037Z,2.80
2019-01-14T10:15:41.134Z,4.50
2019-01-14T10:18:10.211Z,4.30
2019-01-14T10:20:39.246Z,4.03
2019-01-14T10:23:08.289Z,2.07
2019-01-14T10:26:00.936Z,3.00
2019-01-14T10:28:29.966Z,2.87
2019-01-14T10:30:59.029Z,5.93
2019-01-14T10:33:28.073Z,7.80
2019-01-14T10:35:57.116Z,5.60
2019-01-14T10:38:26.227Z,2.50
2019-01-14T10:40:55.252Z,4.83
2019-01-14T10:43:24.295Z,8.03
2019-01-14T10:45:53.331Z,4.53
2019-01-14T10:48:22.357Z,5.20
2019-01-14T10:50:51.389Z,6.43
2019-01-14T10:53:20.440Z,5.47
2019-01-14T10:55:49.467Z,5.07
2019-01-14T10:58:18.504Z,4.90
2019-01-14T11:00:47.702Z,5.50
2019-01-14T11:03:16.737Z,4.17
2019-01-14T11:05:45.769Z,7.10
2019-01-14T11:08:14.837Z,5.07
2019-01-14T11:10:43.865Z,4.10
2019-01-14T11:13:12.900Z,8.13
2019-01-14T11:15:45.026Z,6.37
2019-01-14T11:18:14.055Z,4.67
2019-01-14T11:20:43.091Z,7.10
2019-01-14T11:23:12.243Z,3.53
2019-01-14T11:25:41.275Z,3.43
2019-01-14T11:28:10.314Z,4.10
2019-01-14T11:30:39.374Z,4.60
2019-01-14T11:33:08.414Z,3.13
2019-01-14T11:35:37.440Z,3.63
2019-01-14T11:38:06.495Z,3.20
2019-01-14T11:40:35.580Z,3.23
2019-01-14T11:43:04.614Z,6.37
2019-01-14T11:45:33.689Z,4.00
2019-01-14T11:48:02.723Z,3.03
2019-01-14T11:50:31.755Z,4.20
2019-01-14T11:53:00.809Z,3.87
2019-01-14T11:55:29.840Z,4.13
2019-01-14T11:57:58.869Z,4.67
2019-01-14T12:00:27.940Z,5.37
2019-01-14T12:02:56.973Z,2.87
2019-01-14T12:05:26.008Z,5.77
2019-01-14T12:07:55.126Z,5.00
2019-01-14T12:10:24.154Z,5.13
2019-01-14T12:12:53.188Z,3.47
2019-01-14T12:15:22.262Z,8.80
2019-01-14T12:17:51.301Z,5.50
2019-01-14T12:20:20.335Z,5.20
2019-01-14T12:22:49.399Z,7.90
2019-01-14T12:25:19.854Z,8.37
2019-01-14T12:27:47.485Z,12.30
2019-01-14T12:30:32.256Z,6.63
2019-01-14T12:33:01.305Z,4.77
2019-01-14T12:35:30.330Z,6.43
2019-01-14T12:37:59.403Z,4.83
2019-01-14T12:40:28.424Z,4.70
2019-01-14T12:42:57.465Z,11.30
2019-01-14T12:45:26.623Z,6.17
2019-01-14T12:47:55.734Z,14.07
2019-01-14T12:50:24.713Z,42.70
2019-01-14T12:52:53.834Z,15.80
2019-01-14T12:55:22.867Z,14.67
2019-01-14T12:57:51.917Z,8.37
2019-01-14T13:00:21.704Z,13.67
2019-01-14T13:02:50.749Z,10.17
2019-01-14T13:05:19.804Z,10.73
2019-01-14T13:07:48.890Z,10.83
2019-01-14T13:10:18.017Z,6.33
2019-01-14T13:12:47.068Z,11.07
2019-01-14T13:15:16.444Z,12.37
2019-01-14T13:17:45.475Z,12.93
2019-01-14T13:20:15.383Z,8.50
2019-01-14T13:22:44.464Z,6.37
2019-01-14T13:25:13.509Z,14.13
2019-01-14T13:27:42.555Z,27.10
2019-01-14T13:30:13.517Z,16.40
2019-01-14T13:32:42.545Z,4.73
2019-01-14T13:35:11.601Z,9.77
2019-01-14T13:37:40.717Z,7.07
2019-01-14T13:40:09.751Z,3.07
2019-01-14T13:42:38.798Z,18.53
2019-01-14T13:45:09.711Z,11.87
2019-01-14T13:47:38.744Z,6.30
2019-01-14T13:50:07.792Z,10.43
2019-01-14T13:52:37.730Z,7.20
2019-01-14T13:55:06.772Z,9.73
2019-01-14T13:57:36.571Z,11.97
2019-01-14T14:00:06.606Z,6.13
2019-01-14T14:02:35.651Z,7.23
2019-01-14T14:05:05.929Z,12.50
2019-01-14T14:07:33.782Z,12.40
2019-01-14T14:10:02.831Z,6.10
2019-01-14T14:12:31.887Z,10.13
2019-01-14T14:15:00.945Z,5.03
2019-01-14T14:17:29.983Z,7.80
2019-01-14T14:19:59.028Z,6.53
2019-01-14T14:22:28.107Z,7.80
2019-01-14T14:24:57.155Z,4.03
2019-01-14T14:27:26.185Z,7.50
2019-01-14T14:29:55.330Z,7.90
2019-01-14T14:32:24.384Z,7.60
2019-01-14T14:34:53.424Z,7.50
2019-01-14T14:37:22.482Z,5.47
2019-01-14T14:39:51.530Z,5.27
2019-01-14T14:42:20.563Z,5.23
2019-01-14T14:44:49.645Z,5.40
2019-01-14T14:47:18.685Z,5.27
2019-01-14T14:49:47.730Z,7.87
2019-01-14T14:52:16.852Z,4.80
2019-01-14T14:54:45.841Z,5.60
2019-01-14T14:57:14.884Z,6.97
2019-01-14T14:59:43.952Z,8.90
2019-01-14T15:02:12.982Z,8.37
2019-01-14T15:04:42.014Z,6.57
2019-01-14T15:07:11.130Z,18.33
2019-01-14T15:09:40.172Z,54.73
2019-01-14T15:12:09.207Z,38.00
2019-01-14T15:14:38.285Z,22.43
2019-01-14T15:17:07.353Z,18.77
2019-01-14T15:19:36.391Z,7.67
2019-01-14T15:22:05.483Z,5.73
2019-01-14T15:24:34.510Z,6.17
2019-01-14T15:27:03.540Z,5.27
2019-01-14T15:29:32.799Z,6.10
2019-01-14T15:32:01.836Z,3.57
2019-01-14T15:34:30.868Z,5.10
2019-01-14T15:36:59.932Z,8.43
2019-01-14T15:39:28.972Z,9.57
2019-01-14T15:41:58.001Z,8.70
2019-01-14T15:44:27.067Z,7.20
2019-01-14T15:46:56.106Z,6.27
2019-01-14T15:49:25.138Z,7.00
2019-01-14T15:51:54.238Z,5.27
2019-01-14T15:54:23.276Z,6.20
2019-01-14T15:56:52.328Z,5.57
2019-01-14T15:59:21.398Z,5.40
2019-01-14T16:01:50.445Z,25.33
2019-01-14T16:04:19.500Z,10.13
2019-01-14T16:06:48.578Z,6.27
2019-01-14T16:09:17.619Z,7.43
2019-01-14T16:11:46.667Z,10.27
2019-01-14T16:14:15.787Z,12.07
2019-01-14T16:16:44.845Z,10.87
2019-01-14T16:19:13.880Z,7.07
2019-01-14T16:21:42.941Z,6.80
2019-01-14T16:24:11.992Z,7.73
2019-01-14T16:26:41.034Z,6.97
2019-01-14T16:29:10.102Z,10.53
2019-01-14T16:31:39.166Z,10.70
2019-01-14T16:34:08.212Z,14.33
2019-01-14T16:36:37.307Z,11.20
2019-01-14T16:39:06.352Z,11.80
2019-01-14T16:41:35.401Z,11.63
2019-01-14T16:44:04.475Z,6.80
2019-01-14T16:46:33.525Z,16.23
2019-01-14T16:49:02.563Z,17.10
2019-01-14T16:51:31.638Z,9.73
2019-01-14T16:54:00.675Z,5.47
2019-01-14T16:56:29.712Z,13.77
2019-01-14T16:58:58.812Z,23.50
2019-01-14T17:01:27.858Z,28.00
2019-01-14T17:03:56.908Z,21.77
2019-01-14T17:06:25.982Z,34.57
2019-01-14T17:08:55.039Z,35.93
2019-01-14T17:11:24.088Z,36.13
2019-01-14T17:13:53.249Z,9.47
2019-01-14T17:16:22.302Z,18.03
2019-01-14T17:18:51.363Z,11.17
2019-01-14T17:21:20.566Z,12.43
2019-01-14T17:23:49.618Z,12.67
2019-01-14T17:26:18.672Z,14.93
2019-01-14T17:28:47.756Z,23.17
2019-01-14T17:31:16.798Z,13.50
2019-01-14T17:33:45.838Z,11.93
2019-01-14T17:36:14.915Z,11.53
2019-01-14T17:38:43.972Z,6.60
2019-01-14T17:41:13.015Z,5.87
2019-01-14T17:43:42.099Z,9.67
2019-01-14T17:46:11.143Z,7.67
2019-01-14T17:48:40.181Z,5.40
2019-01-14T17:51:09.257Z,11.83
2019-01-14T17:53:38.306Z,13.17
2019-01-14T17:56:07.345Z,18.57
2019-01-14T17:58:37.291Z,9.33
2019-01-14T18:01:06.329Z,8.80
2019-01-14T18:03:35.362Z,9.43
2019-01-14T18:06:04.451Z,12.00
2019-01-14T18:08:33.505Z,8.53
2019-01-14T18:11:02.575Z,20.83
2019-01-14T18:13:31.663Z,49.50
2019-01-14T18:16:00.715Z,27.97
2019-01-14T18:18:29.753Z,9.30
2019-01-14T18:21:05.292Z,7.73
2019-01-14T18:23:27.870Z,11.87
2019-01-14T18:25:57.935Z,11.07
2019-01-14T18:28:27.051Z,8.00
2019-01-14T18:30:56.096Z,9.70
2019-01-14T18:33:25.206Z,14.00
2019-01-14T18:35:54.222Z,3.70
2019-01-14T18:38:23.260Z,11.33
2019-01-14T18:40:52.303Z,13.43
2019-01-14T18:43:21.379Z,13.17
2019-01-14T18:45:50.435Z,15.63
2019-01-14T18:48:19.495Z,20.53
2019-01-14T18:50:48.584Z,14.83
2019-01-14T18:53:17.629Z,8.03
2019-01-14T18:55:46.685Z,10.00
2019-01-14T18:58:15.767Z,10.17
2019-01-14T19:00:44.817Z,9.30
2019-01-14T19:03:13.854Z,6.37
2019-01-14T19:05:42.916Z,5.93
2019-01-14T19:08:11.964Z,7.63
2019-01-14T19:10:41.000Z,7.00
2019-01-14T19:13:10.126Z,10.03
2019-01-14T19:15:39.171Z,11.80
2019-01-14T19:18:08.209Z,3.90
2019-01-14T19:20:37.277Z,6.77
2019-01-14T19:23:06.324Z,11.00
2019-01-14T19:25:35.379Z,9.47
2019-01-14T19:28:04.493Z,7.63
2019-01-14T19:30:33.475Z,11.27
2019-01-14T19:33:02.520Z,5.63
2019-01-14T19:35:31.665Z,4.27
2019-01-14T19:38:00.711Z,6.70
2019-01-14T19:40:29.750Z,6.53
2019-01-14T19:42:58.825Z,9.30
2019-01-14T19:45:27.874Z,8.10
2019-01-14T19:47:56.902Z,7.83
2019-01-14T19:50:25.974Z,10.10
2019-01-14T19:52:55.025Z,9.40
2019-01-14T19:55:24.074Z,5.53
2019-01-14T19:57:53.183Z,2.67
2019-01-14T20:00:22.996Z,2.97
2019-01-14T20:02:52.029Z,5.27
2019-01-14T20:05:21.104Z,6.97
2019-01-14T20:07:50.126Z,2.20
2019-01-14T20:10:19.166Z,3.10
2019-01-14T20:12:48.227Z,3.30
2019-01-14T20:15:17.264Z,2.90
2019-01-14T20:17:46.290Z,3.80
2019-01-14T20:20:15.369Z,2.50
2019-01-14T20:22:44.412Z,5.20
2019-01-14T20:25:13.481Z,4.10
2019-01-14T20:27:42.559Z,4.27
2019-01-14T20:30:13.239Z,4.30
2019-01-14T20:32:42.277Z,5.00
2019-01-14T20:35:11.337Z,2.03
2019-01-14T20:37:40.366Z,2.60
2019-01-14T20:40:09.418Z,3.80
2019-01-14T20:42:38.518Z,4.37
2019-01-14T20:45:07.554Z,2.77
2019-01-14T20:47:36.626Z,3.40
2019-01-14T20:50:06.648Z,4.80
2019-01-14T20:52:35.690Z,4.37
2019-01-14T20:55:04.732Z,2.60
2019-01-14T20:57:33.821Z,3.60
2019-01-14T21:00:02.877Z,3.43
2019-01-14T21:02:31.935Z,4.47
2019-01-14T21:05:01.033Z,4.90
2019-01-14T21:07:31.231Z,4.83
2019-01-14T21:10:00.265Z,2.40
2019-01-14T21:12:29.332Z,2.60
2019-01-14T21:15:15.931Z,3.93
2019-01-14T21:17:41.183Z,6.43
2019-01-14T21:20:11.068Z,5.33
2019-01-14T21:22:40.112Z,75.33
2019-01-14T21:25:09.364Z,125.60
2019-01-14T21:27:38.424Z,54.60
2019-01-14T21:30:07.470Z,12.73
2019-01-14T21:32:36.550Z,7.27
2019-01-14T21:35:05.594Z,6.50
2019-01-14T21:37:34.627Z,5.37
2019-01-14T21:40:03.683Z,4.63
2019-01-14T21:42:32.725Z,6.50
2019-01-14T21:45:01.767Z,9.77
2019-01-14T21:47:32.769Z,3.40
2019-01-14T21:49:59.937Z,3.73
2019-01-14T21:52:28.959Z,3.27
2019-01-14T21:54:58.022Z,2.80
2019-01-14T21:57:27.078Z,2.30
2019-01-14T21:59:56.331Z,5.17
2019-01-14T22:02:25.203Z,3.60
2019-01-14T22:04:54.242Z,3.50
2019-01-14T22:07:23.277Z,3.37
2019-01-14T22:09:52.385Z,2.40
2019-01-14T22:12:21.414Z,3.20
2019-01-14T22:14:50.458Z,7.83
2019-01-14T22:17:19.525Z,3.43
2019-01-14T22:19:48.555Z,2.97
2019-01-14T22:22:18.194Z,2.20
2019-01-14T22:24:47.307Z,2.90
2019-01-14T22:27:16.372Z,2.50
2019-01-14T22:29:45.424Z,3.13
2019-01-14T22:32:14.530Z,2.10
2019-01-14T22:34:43.570Z,3.57
2019-01-14T22:37:12.632Z,3.57
2019-01-14T22:39:41.691Z,2.93
2019-01-14T22:42:10.777Z,3.37
2019-01-14T22:44:39.773Z,3.77
2019-01-14T22:47:08.860Z,33.13
2019-01-14T22:49:37.922Z,8.13
2019-01-14T22:52:06.977Z,3.10
2019-01-14T22:54:36.068Z,2.57
2019-01-14T22:57:05.144Z,2.60
2019-01-14T22:59:34.232Z,2.20
2019-01-14T23:02:03.314Z,2.30
2019-01-14T23:04:32.368Z,2.57
2019-01-14T23:07:01.437Z,2.63
2019-01-14T23:09:30.603Z,2.70
2019-01-14T23:11:59.677Z,2.53
2019-01-14T23:14:28.721Z,2.10
2019-01-14T23:16:58.195Z,4.40
2019-01-14T23:19:27.252Z,3.00
2019-01-14T23:21:56.306Z,1.90
2019-01-14T23:24:25.402Z,2.17
2019-01-14T23:26:54.458Z,2.20
2019-01-14T23:29:23.512Z,2.37
2019-01-14T23:31:52.581Z,2.47
2019-01-14T23:34:21.620Z,2.47
2019-01-14T23:36:50.672Z,1.97
2019-01-14T23:39:19.863Z,2.00
2019-01-14T23:41:48.915Z,2.33
2019-01-14T23:44:17.972Z,2.70
2019-01-14T23:46:48.441Z,2.50
2019-01-14T23:49:16.107Z,2.40
2019-01-14T23:51:45.153Z,2.57
2019-01-14T23:54:14.222Z,1.60
2019-01-14T23:56:43.271Z,2.47
2019-01-14T23:59:12.310Z,1.93
